Time;durP1;ratioP1;P1;durP2;ratioP2;P2;SDS_P1;SDS_P2;PMS_P1;PMS_P2;Temp;Humidity;BMP_temperature;BMP_pressure;BME280_temperature;BME280_humidity;BME280_pressure;Samples;Min_cycle;Max_cycle;Signal;HPM_P1;HPM_P2
2022/10/26 00:01:40;;;;;;;3.00;1.70;;;;;;;;;;5104272;28;20216;-28
2022/10/26 00:04:07;;;;;;;4.40;1.90;;;;;;;;;;5107723;28;20200;-31
2022/10/26 00:06:34;;;;;;;3.47;2.10;;;;;;;;;;5111233;28;20236;-29
2022/10/26 00:09:01;;;;;;;5.27;2.77;;;;;;;;;;5113140;28;20280;-31
2022/10/26 00:11:28;;;;;;;4.17;1.47;;;;;;;;;;5109253;28;20212;-32
2022/10/26 00:13:55;;;;;;;4.83;1.70;;;;;;;;;;5108188;28;20240;-31
2022/10/26 00:16:23;;;;;;;5.57;2.03;;;;;;;;;;5112631;28;20211;-32
2022/10/26 00:18:52;;;;;;;6.20;2.17;;;;;;;;;;5107573;28;20231;-32
2022/10/26 00:21:19;;;;;;;2.57;1.80;;;;;;;;;;5107231;28;20219;-29
2022/10/26 00:23:46;;;;;;;4.80;1.70;;;;;;;;;;5112943;28;20200;-31
2022/10/26 00:26:13;;;;;;;3.23;1.80;;;;;;;;;;5109583;28;20210;-34
2022/10/26 00:28:40;;;;;;;4.73;2.07;;;;;;;;;;5108637;28;20200;-35
2022/10/26 00:31:08;;;;;;;3.00;1.97;;;;;;;;;;5112074;28;20259;-32
2022/10/26 00:33:36;;;;;;;2.63;1.57;;;;;;;;;;5108151;28;20296;-32
2022/10/26 00:36:04;;;;;;;2.63;1.70;;;;;;;;;;5109586;28;20211;-35
2022/10/26 00:38:32;;;;;;;5.63;1.80;;;;;;;;;;5112443;28;20246;-32
2022/10/26 00:40:59;;;;;;;2.50;1.60;;;;;;;;;;5107294;28;20263;-29
2022/10/26 00:43:43;;;;;;;2.57;2.07;;;;;;;;;;5105977;28;20206;-31
2022/10/26 00:46:14;;;;;;;4.20;2.13;;;;;;;;;;5112716;28;20295;-33
2022/10/26 00:48:42;;;;;;;3.53;1.63;;;;;;;;;;5108832;28;20202;-33
2022/10/26 00:51:14;;;;;;;3.30;1.93;;;;;;;;;;5111323;28;20313;-31
2022/10/26 00:53:41;;;;;;;5.97;2.20;;;;;;;;;;5104375;28;20207;-33
2022/10/26 00:56:08;;;;;;;2.47;1.83;;;;;;;;;;5109617;28;20206;-33
2022/10/26 00:58:36;;;;;;;4.97;2.00;;;;;;;;;;5103415;28;20234;-34
2022/10/26 01:01:03;;;;;;;3.20;1.97;;;;;;;;;;5107175;28;20231;-34
2022/10/26 01:03:31;;;;;;;4.40;1.87;;;;;;;;;;5106772;28;20287;-31
2022/10/26 01:05:59;;;;;;;4.73;1.73;;;;;;;;;;5104512;28;20205;-33
2022/10/26 01:08:27;;;;;;;3.90;2.10;;;;;;;;;;5112508;28;20203;-35
2022/10/26 01:10:56;;;;;;;4.53;2.00;;;;;;;;;;5111757;28;20224;-33
2022/10/26 01:13:23;;;;;;;3.30;1.90;;;;;;;;;;5108564;28;20205;-31
2022/10/26 01:15:56;;;;;;;3.50;1.93;;;;;;;;;;5106571;28;20199;-32
2022/10/26 01:18:28;;;;;;;3.17;1.50;;;;;;;;;;5108137;28;20252;-34
2022/10/26 01:21:04;;;;;;;3.93;2.00;;;;;;;;;;5106127;28;20227;-34
2022/10/26 01:23:38;;;;;;;2.20;1.60;;;;;;;;;;5112445;28;20204;-33
2022/10/26 01:26:25;;;;;;;5.50;1.90;;;;;;;;;;5112920;28;20200;-34
2022/10/26 01:29:19;;;;;;;3.43;1.57;;;;;;;;;;5106543;28;20200;-34
2022/10/26 01:31:50;;;;;;;3.73;1.67;;;;;;;;;;5066883;28;20314;-33
2022/10/26 01:34:22;;;;;;;2.27;2.00;;;;;;;;;;5100550;28;20205;-29
2022/10/26 01:36:53;;;;;;;2.63;1.80;;;;;;;;;;5109135;28;20249;-31
2022/10/26 01:39:23;;;;;;;3.80;2.17;;;;;;;;;;5111495;28;20226;-31
2022/10/26 01:41:51;;;;;;;7.93;2.10;;;;;;;;;;5108168;28;20221;-33
2022/10/26 01:44:20;;;;;;;3.67;2.00;;;;;;;;;;5107962;28;20200;-34
2022/10/26 01:46:50;;;;;;;2.13;1.70;;;;;;;;;;5111344;28;20287;-31
2022/10/26 01:49:19;;;;;;;5.53;1.70;;;;;;;;;;5103679;28;20208;-32
2022/10/26 01:51:48;;;;;;;3.97;2.03;;;;;;;;;;5108764;28;20230;-34
2022/10/26 01:54:15;;;;;;;3.23;1.90;;;;;;;;;;5111748;28;20344;-31
2022/10/26 01:56:44;;;;;;;4.13;1.97;;;;;;;;;;5109978;28;20207;-31
2022/10/26 01:59:18;;;;;;;1.93;1.53;;;;;;;;;;5102230;28;20232;-32
2022/10/26 02:02:03;;;;;;;2.70;1.63;;;;;;;;;;5102734;28;20283;-32
2022/10/26 02:04:36;;;;;;;3.43;1.77;;;;;;;;;;5100392;28;20308;-33
2022/10/26 02:07:04;;;;;;;4.37;1.80;;;;;;;;;;5108715;28;20255;-30
2022/10/26 02:09:36;;;;;;;1.50;1.33;;;;;;;;;;5110921;28;20194;-30
2022/10/26 02:12:06;;;;;;;2.77;1.90;;;;;;;;;;5108826;28;20298;-31
2022/10/26 02:14:37;;;;;;;3.23;1.80;;;;;;;;;;5108129;28;20228;-32
2022/10/26 02:17:08;;;;;;;2.50;1.77;;;;;;;;;;5111271;28;20286;-32
2022/10/26 02:19:39;;;;;;;3.90;1.80;;;;;;;;;;5105130;28;20228;-33
2022/10/26 02:22:09;;;;;;;6.60;1.70;;;;;;;;;;5109665;28;20204;-33
2022/10/26 02:24:37;;;;;;;1.83;1.40;;;;;;;;;;5110686;28;20199;-33
2022/10/26 02:27:05;;;;;;;2.70;1.90;;;;;;;;;;5111487;28;20203;-29
2022/10/26 02:29:33;;;;;;;2.77;1.87;;;;;;;;;;5102316;28;20192;-35
2022/10/26 02:32:01;;;;;;;2.40;1.40;;;;;;;;;;5185127;22;20304;-31
2022/10/26 02:34:30;;;;;;;4.33;1.90;;;;;;;;;;5085657;28;20333;-31
2022/10/26 02:36:58;;;;;;;3.17;2.00;;;;;;;;;;5085369;28;20268;-29
2022/10/26 02:39:27;;;;;;;1.80;1.70;;;;;;;;;;5108008;28;20222;-32
2022/10/26 02:41:55;;;;;;;5.20;2.37;;;;;;;;;;5075904;28;20209;-31
2022/10/26 02:44:23;;;;;;;2.43;2.23;;;;;;;;;;5076995;28;20201;-31
2022/10/26 02:46:51;;;;;;;2.73;2.10;;;;;;;;;;5075958;28;20240;-32
2022/10/26 02:49:18;;;;;;;3.40;2.00;;;;;;;;;;5076421;28;20202;-30
2022/10/26 02:51:49;;;;;;;3.70;1.87;;;;;;;;;;5081683;28;20227;-30
2022/10/26 02:54:18;;;;;;;3.93;1.63;;;;;;;;;;5081638;28;20204;-30
2022/10/26 02:56:49;;;;;;;2.17;1.83;;;;;;;;;;5085566;28;20668;-30
2022/10/26 02:59:17;;;;;;;3.93;2.00;;;;;;;;;;5078963;28;20233;-28
2022/10/26 03:01:45;;;;;;;2.63;1.77;;;;;;;;;;5080109;28;20212;-31
2022/10/26 03:04:12;;;;;;;6.60;2.03;;;;;;;;;;5076749;28;20211;-32
2022/10/26 03:06:39;;;;;;;5.53;2.17;;;;;;;;;;5071258;28;20206;-31
2022/10/26 03:09:08;;;;;;;6.03;2.30;;;;;;;;;;5084917;28;20197;-32
2022/10/26 03:11:35;;;;;;;3.50;1.90;;;;;;;;;;5084917;28;20312;-32
2022/10/26 03:14:02;;;;;;;3.90;1.67;;;;;;;;;;5088531;28;20298;-30
2022/10/26 03:16:29;;;;;;;3.43;2.13;;;;;;;;;;5078980;28;20197;-29
2022/10/26 03:18:56;;;;;;;3.40;1.80;;;;;;;;;;5068334;28;20218;-31
2022/10/26 03:21:23;;;;;;;6.53;2.00;;;;;;;;;;5084147;28;20221;-31
2022/10/26 03:23:50;;;;;;;3.13;1.70;;;;;;;;;;5079449;28;20201;-32
2022/10/26 03:26:19;;;;;;;5.63;2.20;;;;;;;;;;5076436;28;20221;-31
2022/10/26 03:28:46;;;;;;;3.50;1.87;;;;;;;;;;5082567;28;20201;-28
2022/10/26 03:31:13;;;;;;;2.27;2.00;;;;;;;;;;5069936;28;20237;-33
2022/10/26 03:33:40;;;;;;;4.50;2.20;;;;;;;;;;5078355;28;20204;-30
2022/10/26 03:36:08;;;;;;;6.70;3.03;;;;;;;;;;5073557;28;20201;-34
2022/10/26 03:38:35;;;;;;;3.57;2.17;;;;;;;;;;5081549;28;20220;-32
2022/10/26 03:41:02;;;;;;;5.60;1.87;;;;;;;;;;5091897;28;20225;-31
2022/10/26 03:43:31;;;;;;;2.60;2.20;;;;;;;;;;5082251;28;20204;-30
2022/10/26 03:45:58;;;;;;;4.77;2.00;;;;;;;;;;5078226;28;20228;-29
2022/10/26 03:48:25;;;;;;;4.67;2.40;;;;;;;;;;5084452;28;20208;-29
2022/10/26 03:50:52;;;;;;;4.57;2.53;;;;;;;;;;5075717;28;20235;-34
2022/10/26 03:53:19;;;;;;;4.67;2.50;;;;;;;;;;5071783;28;20210;-31
2022/10/26 03:55:47;;;;;;;3.60;2.53;;;;;;;;;;5073990;28;20233;-29
2022/10/26 03:58:14;;;;;;;3.03;2.37;;;;;;;;;;5070458;28;20213;-30
2022/10/26 04:00:42;;;;;;;3.47;1.97;;;;;;;;;;5085528;28;20221;-28
2022/10/26 04:03:09;;;;;;;3.37;2.20;;;;;;;;;;5080780;28;20206;-30
2022/10/26 04:05:37;;;;;;;3.23;2.17;;;;;;;;;;5073423;28;20202;-30
2022/10/26 04:08:04;;;;;;;3.30;2.07;;;;;;;;;;5077291;28;20292;-32
2022/10/26 04:10:32;;;;;;;3.17;1.90;;;;;;;;;;5071134;28;20235;-32
2022/10/26 04:13:00;;;;;;;3.40;2.27;;;;;;;;;;5080126;28;20291;-30
2022/10/26 04:15:27;;;;;;;4.60;2.20;;;;;;;;;;5076661;28;20288;-32
2022/10/26 04:17:59;;;;;;;2.53;2.10;;;;;;;;;;5081557;28;20215;-32
2022/10/26 04:20:35;;;;;;;3.90;2.20;;;;;;;;;;5080290;28;20229;-32
2022/10/26 04:23:03;;;;;;;3.67;2.20;;;;;;;;;;5090171;28;20261;-28
2022/10/26 04:25:43;;;;;;;2.63;2.13;;;;;;;;;;5085613;28;20196;-33
2022/10/26 04:28:11;;;;;;;7.20;2.07;;;;;;;;;;5096004;28;20292;-29
2022/10/26 04:30:39;;;;;;;6.47;2.20;;;;;;;;;;5082785;28;20218;-30
2022/10/26 04:33:08;;;;;;;2.93;2.10;;;;;;;;;;5087341;28;20343;-32
2022/10/26 04:35:35;;;;;;;2.70;2.50;;;;;;;;;;5094753;28;20208;-34
2022/10/26 04:38:03;;;;;;;2.87;2.40;;;;;;;;;;5089443;28;20296;-28
2022/10/26 04:40:31;;;;;;;4.77;2.80;;;;;;;;;;5072497;28;20233;-31
2022/10/26 04:42:58;;;;;;;5.93;2.50;;;;;;;;;;5078479;28;20213;-30
2022/10/26 04:45:27;;;;;;;4.20;2.30;;;;;;;;;;5083711;28;20201;-29
2022/10/26 04:48:00;;;;;;;5.07;2.83;;;;;;;;;;5079767;28;20205;-31
2022/10/26 04:50:29;;;;;;;2.90;2.60;;;;;;;;;;5083121;28;20217;-30
2022/10/26 04:52:56;;;;;;;6.53;3.13;;;;;;;;;;5091136;28;20215;-30
2022/10/26 04:55:23;;;;;;;3.33;2.07;;;;;;;;;;5091366;28;20209;-31
2022/10/26 04:57:50;;;;;;;8.60;2.53;;;;;;;;;;5077669;28;20205;-32
2022/10/26 05:00:17;;;;;;;3.37;2.47;;;;;;;;;;5072970;28;20239;-32
2022/10/26 05:02:45;;;;;;;4.77;2.27;;;;;;;;;;5085141;28;20198;-32
2022/10/26 05:05:12;;;;;;;3.27;2.60;;;;;;;;;;5084873;28;20208;-29
2022/10/26 05:07:40;;;;;;;3.13;2.30;;;;;;;;;;5082694;28;20200;-32
2022/10/26 05:10:08;;;;;;;3.13;2.27;;;;;;;;;;5091430;28;20337;-29
2022/10/26 05:12:35;;;;;;;2.87;2.37;;;;;;;;;;5086491;28;20209;-32
2022/10/26 05:15:02;;;;;;;2.67;2.00;;;;;;;;;;5086223;28;20196;-30
2022/10/26 05:17:29;;;;;;;2.80;2.37;;;;;;;;;;5089770;28;20298;-29
2022/10/26 05:19:59;;;;;;;5.57;2.23;;;;;;;;;;5084026;28;20231;-30
2022/10/26 05:22:26;;;;;;;2.50;2.30;;;;;;;;;;5082127;28;20297;-28
2022/10/26 05:24:54;;;;;;;7.27;2.30;;;;;;;;;;5103996;28;20208;-32
2022/10/26 05:27:21;;;;;;;4.90;2.40;;;;;;;;;;5095782;28;20228;-32
2022/10/26 05:29:49;;;;;;;2.00;1.90;;;;;;;;;;5077729;28;20224;-33
2022/10/26 05:32:16;;;;;;;3.30;2.50;;;;;;;;;;5080219;28;20220;-31
2022/10/26 05:34:43;;;;;;;4.20;2.50;;;;;;;;;;5084300;28;20205;-29
2022/10/26 05:37:10;;;;;;;3.33;2.33;;;;;;;;;;5090840;28;20205;-28
2022/10/26 05:39:37;;;;;;;3.90;2.70;;;;;;;;;;5087200;28;20217;-31
2022/10/26 05:42:06;;;;;;;2.30;2.10;;;;;;;;;;5085104;28;20335;-33
2022/10/26 05:44:33;;;;;;;4.97;2.37;;;;;;;;;;5077472;28;20208;-30
2022/10/26 05:47:00;;;;;;;4.33;2.70;;;;;;;;;;5086385;28;20205;-28
2022/10/26 05:49:27;;;;;;;2.80;2.10;;;;;;;;;;5080399;28;20193;-34
2022/10/26 05:51:54;;;;;;;4.83;2.33;;;;;;;;;;5083672;28;20210;-31
2022/10/26 05:54:21;;;;;;;4.53;2.40;;;;;;;;;;5078842;28;20196;-31
2022/10/26 05:56:49;;;;;;;5.67;2.60;;;;;;;;;;5085829;28;20217;-35
2022/10/26 05:59:18;;;;;;;3.83;2.60;;;;;;;;;;5084884;28;20231;-29
2022/10/26 06:01:52;;;;;;;2.57;2.07;;;;;;;;;;5080222;28;20224;-30
2022/10/26 06:04:24;;;;;;;2.00;1.90;;;;;;;;;;5075731;28;20214;-28
2022/10/26 06:06:53;;;;;;;5.63;2.20;;;;;;;;;;5080805;28;20197;-30
2022/10/26 06:09:23;;;;;;;4.37;2.53;;;;;;;;;;5088029;28;20212;-31
2022/10/26 06:11:51;;;;;;;6.03;2.83;;;;;;;;;;5088914;28;20278;-30
2022/10/26 06:14:19;;;;;;;4.13;2.37;;;;;;;;;;5085205;28;20205;-33
2022/10/26 06:16:54;;;;;;;3.60;2.30;;;;;;;;;;5078613;28;20427;-31
2022/10/26 06:19:26;;;;;;;4.03;2.53;;;;;;;;;;5075414;28;20216;-33
2022/10/26 06:22:02;;;;;;;5.10;2.80;;;;;;;;;;5084052;28;20414;-32
2022/10/26 06:24:36;;;;;;;3.03;2.00;;;;;;;;;;5079921;28;20200;-30
2022/10/26 06:27:08;;;;;;;5.43;2.63;;;;;;;;;;5086404;28;20201;-28
2022/10/26 06:29:42;;;;;;;7.60;3.20;;;;;;;;;;5082984;28;20208;-29
2022/10/26 06:32:10;;;;;;;8.13;2.80;;;;;;;;;;5092573;28;20211;-32
2022/10/26 06:34:43;;;;;;;5.90;2.20;;;;;;;;;;5080074;28;20219;-30
2022/10/26 06:37:11;;;;;;;5.00;2.60;;;;;;;;;;5084438;28;20193;-31
2022/10/26 06:39:40;;;;;;;4.03;2.63;;;;;;;;;;5086355;28;20308;-29
2022/10/26 06:42:09;;;;;;;4.47;2.53;;;;;;;;;;5084383;28;20220;-30
2022/10/26 06:44:37;;;;;;;4.13;2.37;;;;;;;;;;5073650;28;20201;-30
2022/10/26 06:47:07;;;;;;;6.53;2.80;;;;;;;;;;5077035;28;20200;-31
2022/10/26 06:49:36;;;;;;;7.23;2.50;;;;;;;;;;5088269;28;20239;-32
2022/10/26 06:52:08;;;;;;;5.30;2.47;;;;;;;;;;5083336;28;20213;-30
2022/10/26 06:54:43;;;;;;;4.27;2.80;;;;;;;;;;5082972;28;20240;-29
2022/10/26 06:57:11;;;;;;;3.50;2.60;;;;;;;;;;5082135;28;20207;-31
2022/10/26 06:59:40;;;;;;;3.40;2.30;;;;;;;;;;5077676;28;20239;-29
2022/10/26 07:02:10;;;;;;;4.40;2.57;;;;;;;;;;5090268;28;20208;-30
2022/10/26 07:04:37;;;;;;;4.00;2.50;;;;;;;;;;5082125;28;20305;-31
2022/10/26 07:07:04;;;;;;;3.20;2.57;;;;;;;;;;5083887;28;20202;-29
2022/10/26 07:09:32;;;;;;;4.37;2.37;;;;;;;;;;5085932;28;20300;-31
2022/10/26 07:11:59;;;;;;;3.20;2.20;;;;;;;;;;5084670;28;20212;-30
2022/10/26 07:14:26;;;;;;;4.67;2.43;;;;;;;;;;5073410;28;20223;-28
2022/10/26 07:16:53;;;;;;;3.77;2.10;;;;;;;;;;5085435;28;20208;-32
2022/10/26 07:19:21;;;;;;;2.87;2.30;;;;;;;;;;5078156;28;20204;-30
2022/10/26 07:21:49;;;;;;;3.27;2.33;;;;;;;;;;5087421;28;20227;-27
2022/10/26 07:24:16;;;;;;;4.93;2.50;;;;;;;;;;5080763;28;20201;-30
2022/10/26 07:26:43;;;;;;;2.90;2.57;;;;;;;;;;5086845;28;20217;-30
2022/10/26 07:29:10;;;;;;;2.50;2.30;;;;;;;;;;5080825;28;20204;-30
2022/10/26 07:31:37;;;;;;;2.63;2.17;;;;;;;;;;5088904;28;20243;-29
2022/10/26 07:34:04;;;;;;;3.00;2.33;;;;;;;;;;5082059;28;20208;-29
2022/10/26 07:36:35;;;;;;;6.07;2.80;;;;;;;;;;5089950;28;20341;-30
2022/10/26 07:39:02;;;;;;;2.83;2.37;;;;;;;;;;5075447;28;20205;-31
2022/10/26 07:41:29;;;;;;;4.17;2.70;;;;;;;;;;5083286;28;20262;-30
2022/10/26 07:43:57;;;;;;;3.50;2.80;;;;;;;;;;5081624;28;20228;-31
2022/10/26 07:46:24;;;;;;;3.83;2.00;;;;;;;;;;5074085;28;20205;-32
2022/10/26 07:48:51;;;;;;;2.77;2.47;;;;;;;;;;5078026;28;20209;-31
2022/10/26 07:51:18;;;;;;;2.33;2.13;;;;;;;;;;5087450;28;20220;-32
2022/10/26 07:53:47;;;;;;;10.00;2.83;;;;;;;;;;5081135;28;20214;-32
2022/10/26 07:56:19;;;;;;;3.30;2.50;;;;;;;;;;5077662;28;20319;-31
2022/10/26 07:58:47;;;;;;;4.73;2.77;;;;;;;;;;5087845;28;20204;-31
2022/10/26 08:01:14;;;;;;;2.13;2.03;;;;;;;;;;5088017;28;20286;-29
2022/10/26 08:03:42;;;;;;;2.30;2.10;;;;;;;;;;5078002;28;20232;-27
2022/10/26 08:06:09;;;;;;;6.47;2.70;;;;;;;;;;5087528;28;20205;-29
2022/10/26 08:08:36;;;;;;;5.47;2.60;;;;;;;;;;5084143;28;20212;-32
2022/10/26 08:11:06;;;;;;;3.83;2.60;;;;;;;;;;5093323;28;20252;-30
2022/10/26 08:13:34;;;;;;;7.13;3.40;;;;;;;;;;5083073;28;20281;-28
2022/10/26 08:16:02;;;;;;;3.90;2.70;;;;;;;;;;5088818;28;20296;-32
2022/10/26 08:18:29;;;;;;;4.33;3.00;;;;;;;;;;5083202;28;20205;-31
2022/10/26 08:21:01;;;;;;;3.90;2.93;;;;;;;;;;5091583;28;20221;-32
2022/10/26 08:23:28;;;;;;;2.77;2.43;;;;;;;;;;5086607;28;20341;-30
2022/10/26 08:25:58;;;;;;;3.77;2.70;;;;;;;;;;5092232;28;20210;-30
2022/10/26 08:28:27;;;;;;;4.20;2.60;;;;;;;;;;5086516;28;20217;-32
2022/10/26 08:30:54;;;;;;;5.07;2.70;;;;;;;;;;5083345;28;20235;-30
2022/10/26 08:33:22;;;;;;;2.37;2.17;;;;;;;;;;5089670;28;20272;-33
2022/10/26 08:35:49;;;;;;;5.00;2.67;;;;;;;;;;5088006;28;20202;-29
2022/10/26 08:38:16;;;;;;;3.27;2.50;;;;;;;;;;5083782;28;20209;-30
2022/10/26 08:40:44;;;;;;;5.57;2.77;;;;;;;;;;5071645;28;20694;-33
2022/10/26 08:43:14;;;;;;;4.77;2.57;;;;;;;;;;5077795;28;20208;-31
2022/10/26 08:45:46;;;;;;;3.53;2.97;;;;;;;;;;5086808;28;20280;-28
2022/10/26 08:48:16;;;;;;;4.67;2.50;;;;;;;;;;5078084;28;20198;-31
2022/10/26 08:50:46;;;;;;;2.70;2.50;;;;;;;;;;5082673;28;20232;-32
2022/10/26 08:53:16;;;;;;;3.13;2.57;;;;;;;;;;5078383;28;20217;-31
2022/10/26 08:55:45;;;;;;;7.33;2.53;;;;;;;;;;5081330;28;20203;-31
2022/10/26 08:58:15;;;;;;;3.03;2.47;;;;;;;;;;5074416;28;20201;-32
2022/10/26 09:00:45;;;;;;;7.30;2.70;;;;;;;;;;5080861;28;20233;-30
2022/10/26 09:03:16;;;;;;;6.13;3.43;;;;;;;;;;5078586;28;20597;-31
2022/10/26 09:05:48;;;;;;;6.50;2.73;;;;;;;;;;5077616;28;20238;-32
2022/10/26 09:08:18;;;;;;;6.43;3.13;;;;;;;;;;5088722;28;20287;-32
2022/10/26 09:10:53;;;;;;;12.27;2.80;;;;;;;;;;5073026;28;20248;-32
2022/10/26 09:13:27;;;;;;;4.47;2.70;;;;;;;;;;5084761;28;20210;-33
2022/10/26 09:16:00;;;;;;;2.97;2.67;;;;;;;;;;5089858;28;20223;-31
2022/10/26 09:18:32;;;;;;;6.10;2.43;;;;;;;;;;5075829;28;20209;-30
2022/10/26 09:21:06;;;;;;;3.93;2.70;;;;;;;;;;5084669;28;20230;-33
2022/10/26 09:23:40;;;;;;;7.33;2.60;;;;;;;;;;5072078;28;20209;-29
2022/10/26 09:26:11;;;;;;;3.37;2.77;;;;;;;;;;5090677;28;20215;-30
2022/10/26 09:28:40;;;;;;;4.20;2.70;;;;;;;;;;5082543;28;20196;-30
2022/10/26 09:31:13;;;;;;;4.30;2.87;;;;;;;;;;5085135;28;20221;-33
2022/10/26 09:33:41;;;;;;;5.50;3.80;;;;;;;;;;5084458;28;20196;-31
2022/10/26 09:36:11;;;;;;;6.10;3.30;;;;;;;;;;5088294;28;20217;-31
2022/10/26 09:38:41;;;;;;;5.47;3.27;;;;;;;;;;5091114;28;20209;-29
2022/10/26 09:41:13;;;;;;;7.40;3.13;;;;;;;;;;5090368;28;20234;-33
2022/10/26 09:43:43;;;;;;;8.77;2.73;;;;;;;;;;5091856;28;20198;-30
2022/10/26 09:46:14;;;;;;;6.00;3.20;;;;;;;;;;5084957;28;20661;-28
2022/10/26 09:48:43;;;;;;;5.63;2.70;;;;;;;;;;5074883;28;20198;-30
2022/10/26 09:51:11;;;;;;;5.20;2.83;;;;;;;;;;5084235;28;20223;-28
2022/10/26 09:53:38;;;;;;;3.90;2.63;;;;;;;;;;5082053;28;20197;-31
2022/10/26 09:56:06;;;;;;;3.17;2.50;;;;;;;;;;5091811;28;20528;-28
2022/10/26 09:58:37;;;;;;;5.73;2.50;;;;;;;;;;5085637;28;20291;-30
2022/10/26 10:01:04;;;;;;;5.60;2.60;;;;;;;;;;5078117;28;20229;-32
2022/10/26 10:03:48;;;;;;;4.37;2.73;;;;;;;;;;5088963;28;20289;-29
2022/10/26 10:06:17;;;;;;;5.83;3.00;;;;;;;;;;5087304;28;20218;-30
2022/10/26 10:08:45;;;;;;;5.50;2.83;;;;;;;;;;5079596;28;20258;-32
2022/10/26 10:11:13;;;;;;;3.23;2.70;;;;;;;;;;5071149;28;20225;-31
2022/10/26 10:13:43;;;;;;;5.40;2.77;;;;;;;;;;5073236;28;20213;-33
2022/10/26 10:16:16;;;;;;;4.10;2.93;;;;;;;;;;5078787;28;20197;-31
2022/10/26 10:18:53;;;;;;;5.40;2.87;;;;;;;;;;5076892;28;20200;-34
2022/10/26 10:21:22;;;;;;;5.47;3.03;;;;;;;;;;5081255;28;20289;-30
2022/10/26 10:23:50;;;;;;;4.53;2.70;;;;;;;;;;5078602;28;20207;-31
2022/10/26 10:26:41;;;;;;;4.60;2.77;;;;;;;;;;5074553;28;20532;-29
2022/10/26 10:29:16;;;;;;;3.50;2.80;;;;;;;;;;5078328;28;20201;-32
2022/10/26 10:31:55;;;;;;;7.67;3.00;;;;;;;;;;5078673;28;20254;-32
2022/10/26 10:34:23;;;;;;;4.30;2.23;;;;;;;;;;5073239;28;20211;-32
2022/10/26 10:36:51;;;;;;;5.03;2.60;;;;;;;;;;5597697;22;20263;-30
2022/10/26 10:39:29;;;;;;;3.43;2.40;;;;;;;;;;5102958;28;20211;-34
2022/10/26 10:41:57;;;;;;;7.40;2.53;;;;;;;;;;5077647;28;20225;-31
2022/10/26 10:44:26;;;;;;;5.60;2.57;;;;;;;;;;5082040;28;20291;-35
2022/10/26 10:47:00;;;;;;;3.33;2.00;;;;;;;;;;5078356;28;20220;-31
2022/10/26 10:49:28;;;;;;;5.37;2.40;;;;;;;;;;5341550;22;20592;-33
2022/10/26 10:51:57;;;;;;;2.50;2.17;;;;;;;;;;5059103;28;20343;-34
2022/10/26 10:54:26;;;;;;;4.50;2.20;;;;;;;;;;5055781;28;20213;-35
2022/10/26 10:56:54;;;;;;;5.00;2.20;;;;;;;;;;5058625;28;20293;-35
2022/10/26 10:59:45;;;;;;;4.53;2.00;;;;;;;;;;5052562;28;20205;-34
2022/10/26 11:02:27;;;;;;;2.53;1.93;;;;;;;;;;5061420;28;20247;-37
2022/10/26 11:05:12;;;;;;;5.03;2.20;;;;;;;;;;5049439;28;20223;-34
2022/10/26 11:07:44;;;;;;;4.93;1.97;;;;;;;;;;5058045;28;20201;-34
2022/10/26 11:10:14;;;;;;;6.80;2.47;;;;;;;;;;5057380;28;20232;-34
2022/10/26 11:12:45;;;;;;;8.13;2.33;;;;;;;;;;5058772;28;20204;-35
2022/10/26 11:15:14;;;;;;;4.00;2.43;;;;;;;;;;5058042;28;20212;-32
2022/10/26 11:17:48;;;;;;;5.23;2.17;;;;;;;;;;5057023;28;20202;-33
2022/10/26 11:20:17;;;;;;;2.93;1.70;;;;;;;;;;5056278;28;20249;-34
2022/10/26 11:22:58;;;;;;;4.07;1.80;;;;;;;;;;5058891;28;20214;-34
2022/10/26 11:25:28;;;;;;;4.40;1.80;;;;;;;;;;5057596;28;20233;-34
2022/10/26 11:27:58;;;;;;;7.50;2.20;;;;;;;;;;5049502;28;20197;-30
2022/10/26 11:30:26;;;;;;;2.83;1.90;;;;;;;;;;5057290;28;20226;-33
2022/10/26 11:32:55;;;;;;;3.87;2.00;;;;;;;;;;5050643;28;20202;-32
2022/10/26 11:35:25;;;;;;;5.53;2.77;;;;;;;;;;5058890;28;20208;-35
2022/10/26 11:37:56;;;;;;;4.27;2.37;;;;;;;;;;5049561;28;20263;-33
2022/10/26 11:40:26;;;;;;;4.23;2.20;;;;;;;;;;5054882;28;20225;-34
2022/10/26 11:42:58;;;;;;;3.90;2.00;;;;;;;;;;5054941;28;20228;-35
2022/10/26 11:45:26;;;;;;;2.93;1.77;;;;;;;;;;5058744;28;20236;-35
2022/10/26 11:47:56;;;;;;;4.90;2.00;;;;;;;;;;5054247;28;20259;-37
2022/10/26 11:50:26;;;;;;;2.90;1.80;;;;;;;;;;5058256;28;20319;-32
2022/10/26 11:52:58;;;;;;;7.17;2.07;;;;;;;;;;5052944;28;20206;-37
2022/10/26 11:55:25;;;;;;;5.97;1.90;;;;;;;;;;5055320;28;20279;-33
2022/10/26 11:57:54;;;;;;;6.00;1.70;;;;;;;;;;5052431;28;20213;-32
2022/10/26 12:00:21;;;;;;;3.50;1.80;;;;;;;;;;5055481;28;20251;-36
2022/10/26 12:02:50;;;;;;;7.03;1.90;;;;;;;;;;5054283;28;20217;-34
2022/10/26 12:05:20;;;;;;;3.07;1.90;;;;;;;;;;5053443;28;20222;-37
2022/10/26 12:07:49;;;;;;;4.93;2.13;;;;;;;;;;5050515;28;20212;-35
2022/10/26 12:10:24;;;;;;;4.43;1.70;;;;;;;;;;5057370;28;20229;-33
2022/10/26 12:12:55;;;;;;;2.77;1.83;;;;;;;;;;5055710;28;20200;-34
2022/10/26 12:15:26;;;;;;;6.63;1.80;;;;;;;;;;5058301;28;20197;-34
2022/10/26 12:17:55;;;;;;;5.90;1.87;;;;;;;;;;5050477;28;20213;-33
2022/10/26 12:20:39;;;;;;;2.33;1.90;;;;;;;;;;5056772;28;20233;-34
2022/10/26 12:23:06;;;;;;;3.63;1.63;;;;;;;;;;5061166;28;20319;-32
2022/10/26 12:25:35;;;;;;;5.70;1.83;;;;;;;;;;5052755;28;20206;-36
2022/10/26 12:28:02;;;;;;;7.03;1.97;;;;;;;;;;5057587;28;20213;-37
2022/10/26 12:30:31;;;;;;;4.83;2.10;;;;;;;;;;5055359;28;20232;-35
2022/10/26 12:32:59;;;;;;;2.30;1.63;;;;;;;;;;5055548;28;20204;-31
2022/10/26 12:35:30;;;;;;;4.53;2.00;;;;;;;;;;5053757;28;20235;-36
2022/10/26 12:37:58;;;;;;;3.37;1.77;;;;;;;;;;5066351;28;20236;-35
2022/10/26 12:40:43;;;;;;;4.80;1.47;;;;;;;;;;5060194;28;20229;-31
2022/10/26 12:43:28;;;;;;;3.73;1.97;;;;;;;;;;5060219;28;20221;-32
2022/10/26 12:46:10;;;;;;;4.97;1.87;;;;;;;;;;5059749;28;20212;-35
2022/10/26 12:48:40;;;;;;;5.97;2.00;;;;;;;;;;5061702;28;20216;-35
2022/10/26 12:51:40;;;;;;;4.43;1.87;;;;;;;;;;5068114;28;20267;-31
2022/10/26 12:54:16;;;;;;;3.33;2.07;;;;;;;;;;5049454;28;20217;-32
2022/10/26 12:56:50;;;;;;;3.00;1.60;;;;;;;;;;5051700;28;20212;-31
2022/10/26 12:59:23;;;;;;;6.57;1.93;;;;;;;;;;5064802;28;20201;-33
2022/10/26 13:01:57;;;;;;;6.67;2.00;;;;;;;;;;5064707;28;20319;-32
2022/10/26 13:04:30;;;;;;;7.63;1.90;;;;;;;;;;5060524;28;20293;-30
2022/10/26 13:07:13;;;;;;;5.20;2.33;;;;;;;;;;5059499;28;20202;-35
2022/10/26 13:09:45;;;;;;;4.33;2.00;;;;;;;;;;5054805;28;20206;-31
2022/10/26 13:12:14;;;;;;;6.23;2.03;;;;;;;;;;5057218;28;20206;-35
2022/10/26 13:14:49;;;;;;;3.50;1.90;;;;;;;;;;5059149;28;20209;-35
2022/10/26 13:17:23;;;;;;;2.63;1.83;;;;;;;;;;5059821;28;20216;-34
2022/10/26 13:19:55;;;;;;;4.17;2.13;;;;;;;;;;5059265;28;20227;-35
2022/10/26 13:22:23;;;;;;;4.43;2.20;;;;;;;;;;5070440;28;20213;-36
2022/10/26 13:24:52;;;;;;;6.27;1.93;;;;;;;;;;5074443;28;20208;-33
2022/10/26 13:27:40;;;;;;;4.27;1.97;;;;;;;;;;5073089;28;20206;-39
2022/10/26 13:30:28;;;;;;;8.53;2.60;;;;;;;;;;5065799;28;20235;-35
2022/10/26 13:32:57;;;;;;;7.13;2.33;;;;;;;;;;5035575;28;20296;-34
2022/10/26 13:35:25;;;;;;;3.10;2.27;;;;;;;;;;5055906;28;20213;-32
2022/10/26 13:37:53;;;;;;;4.13;2.03;;;;;;;;;;5062439;28;20197;-35
2022/10/26 13:40:21;;;;;;;3.37;2.00;;;;;;;;;;5070717;28;20231;-37
2022/10/26 13:42:50;;;;;;;3.63;1.57;;;;;;;;;;5056283;28;20224;-33
2022/10/26 13:45:20;;;;;;;4.83;1.70;;;;;;;;;;5059142;28;20236;-35
2022/10/26 13:47:49;;;;;;;3.30;2.27;;;;;;;;;;5066319;28;20206;-32
2022/10/26 13:50:18;;;;;;;5.13;1.80;;;;;;;;;;5054691;28;20315;-36
2022/10/26 13:52:46;;;;;;;3.43;1.83;;;;;;;;;;5064461;28;20213;-36
2022/10/26 13:55:17;;;;;;;3.43;1.57;;;;;;;;;;5070825;28;20216;-34
2022/10/26 13:57:45;;;;;;;9.43;2.23;;;;;;;;;;5060420;28;20220;-35
2022/10/26 14:00:18;;;;;;;3.20;2.00;;;;;;;;;;5063171;28;20228;-32
2022/10/26 14:02:45;;;;;;;7.17;2.33;;;;;;;;;;5070926;28;20224;-33
2022/10/26 14:05:13;;;;;;;3.23;1.60;;;;;;;;;;5058865;28;20224;-35
2022/10/26 14:07:42;;;;;;;7.30;2.17;;;;;;;;;;5050923;28;20232;-33
2022/10/26 14:10:22;;;;;;;5.97;2.23;;;;;;;;;;5051158;28;20240;-31
2022/10/26 14:12:50;;;;;;;4.50;1.90;;;;;;;;;;5060352;28;20210;-37
2022/10/26 14:15:23;;;;;;;5.20;1.60;;;;;;;;;;5065166;28;20217;-33
2022/10/26 14:17:50;;;;;;;3.03;1.60;;;;;;;;;;5063016;28;20198;-33
2022/10/26 14:20:19;;;;;;;7.53;1.87;;;;;;;;;;5060491;28;20228;-36
2022/10/26 14:22:46;;;;;;;4.30;1.50;;;;;;;;;;5062781;28;20224;-31
2022/10/26 14:25:18;;;;;;;4.03;1.83;;;;;;;;;;5069325;28;20212;-35
2022/10/26 14:27:45;;;;;;;7.53;1.87;;;;;;;;;;5061435;28;20212;-38
2022/10/26 14:30:23;;;;;;;6.23;1.63;;;;;;;;;;5054605;28;20232;-32
2022/10/26 14:32:50;;;;;;;4.23;1.67;;;;;;;;;;5058279;28;20194;-37
2022/10/26 14:35:17;;;;;;;3.37;1.53;;;;;;;;;;5059847;28;20300;-31
2022/10/26 14:37:46;;;;;;;5.47;1.60;;;;;;;;;;5050383;28;20214;-34
2022/10/26 14:40:16;;;;;;;3.47;1.87;;;;;;;;;;5058946;28;20232;-31
2022/10/26 14:42:48;;;;;;;4.17;1.97;;;;;;;;;;5050856;28;20218;-34
2022/10/26 14:45:24;;;;;;;3.90;1.93;;;;;;;;;;5055464;28;20210;-37
2022/10/26 14:47:51;;;;;;;3.30;1.83;;;;;;;;;;5070758;28;20247;-33
2022/10/26 14:50:19;;;;;;;4.00;2.03;;;;;;;;;;5056418;28;20233;-33
2022/10/26 14:52:50;;;;;;;4.47;1.87;;;;;;;;;;5056957;28;20202;-34
2022/10/26 14:55:17;;;;;;;7.93;1.87;;;;;;;;;;5059039;28;20198;-33
2022/10/26 14:57:46;;;;;;;7.03;2.00;;;;;;;;;;5059648;28;20212;-35
2022/10/26 15:00:15;;;;;;;4.93;1.67;;;;;;;;;;5055922;28;20243;-32